createdAt,value
2018-03-27T00:01:43.028Z,16.57
2018-03-27T00:04:10.507Z,14.90
2018-03-27T00:06:37.953Z,15.03
2018-03-27T00:09:05.398Z,16.63
2018-03-27T00:11:32.890Z,16.33
2018-03-27T00:14:00.334Z,15.57
2018-03-27T00:16:27.860Z,16.20
2018-03-27T00:18:55.275Z,15.53
2018-03-27T00:24:15.172Z,16.40
2018-03-27T00:26:54.312Z,17.00
2018-03-27T00:29:33.556Z,15.10
2018-03-27T00:32:12.764Z,16.53
2018-03-27T00:34:52.023Z,16.67
2018-03-27T00:37:31.317Z,16.17
2018-03-27T00:40:10.545Z,15.87
2018-03-27T00:42:43.812Z,16.87
2018-03-27T00:45:11.282Z,17.23
2018-03-27T00:47:38.750Z,17.53
2018-03-27T00:50:06.201Z,17.60
2018-03-27T00:52:33.661Z,17.70
2018-03-27T00:55:01.112Z,17.77
2018-03-27T00:57:28.570Z,17.43
2018-03-27T00:59:56.014Z,17.83
2018-03-27T01:02:23.486Z,18.70
2018-03-27T01:04:50.937Z,19.47
2018-03-27T01:07:19.001Z,20.70
2018-03-27T01:09:46.462Z,20.00
2018-03-27T01:12:13.934Z,20.53
2018-03-27T01:14:41.408Z,21.00
2018-03-27T01:17:08.840Z,21.63
2018-03-27T01:19:36.281Z,21.53
2018-03-27T01:22:18.004Z,21.40
2018-03-27T01:24:45.779Z,22.27
2018-03-27T01:27:13.212Z,21.40
2018-03-27T01:29:40.724Z,22.33
2018-03-27T01:32:08.316Z,23.17
2018-03-27T01:34:35.801Z,22.60
2018-03-27T01:37:03.260Z,22.83
2018-03-27T01:39:30.691Z,22.47
2018-03-27T01:41:58.135Z,22.77
2018-03-27T01:44:25.633Z,23.80
2018-03-27T01:46:53.038Z,25.43
2018-03-27T01:49:20.495Z,24.47
2018-03-27T01:51:47.946Z,23.83
2018-03-27T01:54:15.410Z,22.33
2018-03-27T01:56:44.032Z,24.17
2018-03-27T01:59:11.734Z,25.27
2018-03-27T02:01:39.266Z,24.60
2018-03-27T02:04:06.710Z,24.10
2018-03-27T02:06:34.188Z,27.17
2018-03-27T02:09:01.640Z,25.47
2018-03-27T02:11:34.733Z,24.20
2018-03-27T02:14:07.802Z,26.50
2018-03-27T02:16:41.173Z,23.73
2018-03-27T02:19:14.594Z,25.77
2018-03-27T02:21:41.462Z,25.90
2018-03-27T02:24:23.850Z,24.00
2018-03-27T02:26:51.609Z,25.30
2018-03-27T02:29:19.086Z,24.23
2018-03-27T02:31:46.567Z,24.47
2018-03-27T02:34:14.574Z,24.83
2018-03-27T02:36:42.798Z,24.53
2018-03-27T02:39:10.231Z,25.00
2018-03-27T02:41:37.721Z,24.67
2018-03-27T02:44:05.209Z,24.17
2018-03-27T02:46:33.629Z,23.53
2018-03-27T02:49:02.039Z,24.10
2018-03-27T02:51:30.110Z,22.93
2018-03-27T02:53:57.565Z,23.37
2018-03-27T02:56:25.073Z,23.60
2018-03-27T02:58:52.585Z,23.27
2018-03-27T03:01:20.063Z,23.30
2018-03-27T03:03:47.544Z,22.50
2018-03-27T03:06:14.976Z,23.70
2018-03-27T03:08:42.458Z,22.57
2018-03-27T03:11:09.896Z,22.67
2018-03-27T03:13:37.344Z,22.77
2018-03-27T03:16:06.322Z,23.00
2018-03-27T03:18:33.756Z,23.43
2018-03-27T03:21:01.216Z,23.57
2018-03-27T03:23:28.682Z,22.27
2018-03-27T03:25:56.126Z,22.60
2018-03-27T03:28:23.566Z,23.20
2018-03-27T03:30:51.757Z,23.60
2018-03-27T03:33:19.244Z,23.60
2018-03-27T03:35:46.685Z,24.53
2018-03-27T03:38:14.190Z,23.30
2018-03-27T03:40:41.628Z,22.50
2018-03-27T03:43:09.072Z,23.23
2018-03-27T03:45:37.469Z,23.83
2018-03-27T03:48:04.997Z,23.17
2018-03-27T03:50:32.511Z,22.97
2018-03-27T03:53:00.689Z,23.53
2018-03-27T03:55:28.499Z,23.90
2018-03-27T03:57:55.982Z,22.07
2018-03-27T04:00:23.518Z,22.60
2018-03-27T04:02:50.953Z,22.93
2018-03-27T04:05:18.472Z,22.97
2018-03-27T04:07:45.991Z,22.30
2018-03-27T04:10:13.536Z,23.20
2018-03-27T04:12:40.993Z,23.13
2018-03-27T04:15:08.976Z,24.10
2018-03-27T04:17:37.464Z,22.73
2018-03-27T04:20:05.028Z,23.33
2018-03-27T04:22:32.682Z,23.10
2018-03-27T04:25:00.268Z,23.73
2018-03-27T04:27:28.053Z,24.03
2018-03-27T04:29:56.218Z,23.13
2018-03-27T04:32:23.758Z,23.20
2018-03-27T04:34:51.282Z,24.10
2018-03-27T04:37:19.646Z,25.03
2018-03-27T04:39:47.152Z,26.43
2018-03-27T04:42:15.088Z,29.10
2018-03-27T04:44:42.673Z,25.37
2018-03-27T04:47:10.143Z,26.50
2018-03-27T04:49:37.617Z,25.53
2018-03-27T04:52:05.176Z,25.90
2018-03-27T04:54:32.842Z,24.67
2018-03-27T04:57:00.300Z,26.53
2018-03-27T04:59:27.759Z,25.40
2018-03-27T05:01:55.269Z,26.67
2018-03-27T05:04:22.703Z,24.97
2018-03-27T05:06:50.216Z,24.70
2018-03-27T05:09:17.800Z,24.67
2018-03-27T05:11:45.302Z,25.67
2018-03-27T05:14:12.851Z,26.10
2018-03-27T05:16:40.326Z,25.23
2018-03-27T05:19:07.925Z,25.33
2018-03-27T05:21:35.396Z,26.07
2018-03-27T05:24:02.936Z,27.07
2018-03-27T05:26:30.654Z,28.63
2018-03-27T05:28:58.099Z,27.20
2018-03-27T05:31:25.578Z,26.03
2018-03-27T05:33:53.307Z,26.60
2018-03-27T05:36:20.778Z,27.27
2018-03-27T05:38:48.230Z,27.53
2018-03-27T05:41:16.705Z,28.00
2018-03-27T05:43:44.403Z,27.47
2018-03-27T05:46:11.967Z,27.97
2018-03-27T05:48:39.725Z,27.50
2018-03-27T05:51:07.263Z,25.40
2018-03-27T05:53:34.788Z,26.57
2018-03-27T05:56:02.713Z,25.83
2018-03-27T05:58:30.542Z,23.87
2018-03-27T06:03:50.681Z,27.10
2018-03-27T06:06:18.246Z,28.23
2018-03-27T06:08:45.752Z,27.10
2018-03-27T06:11:13.713Z,26.67
2018-03-27T06:13:42.202Z,26.10
2018-03-27T06:16:10.041Z,25.60
2018-03-27T06:18:37.551Z,26.93
2018-03-27T06:21:05.054Z,28.00
2018-03-27T06:23:32.589Z,27.10
2018-03-27T06:26:00.134Z,26.30
2018-03-27T06:28:27.708Z,25.93
2018-03-27T06:30:55.200Z,26.20
2018-03-27T06:33:22.879Z,27.50
2018-03-27T06:35:50.381Z,28.10
2018-03-27T06:38:17.832Z,27.80
2018-03-27T06:40:54.945Z,26.40
2018-03-27T06:43:22.639Z,26.20
2018-03-27T06:45:50.128Z,27.43
2018-03-27T06:48:17.706Z,27.33
2018-03-27T06:50:50.108Z,27.27
2018-03-27T06:53:17.697Z,25.83
2018-03-27T06:55:45.904Z,25.53
2018-03-27T06:58:13.370Z,26.17
2018-03-27T07:00:55.127Z,23.50
2018-03-27T07:03:22.709Z,24.30
2018-03-27T07:05:50.290Z,23.53
2018-03-27T07:08:17.807Z,22.60
2018-03-27T07:10:45.493Z,24.80
2018-03-27T07:13:13.199Z,22.63
2018-03-27T07:15:41.570Z,21.73
2018-03-27T07:18:09.011Z,21.97
2018-03-27T07:20:36.565Z,20.73
2018-03-27T07:23:04.025Z,21.00
2018-03-27T07:25:31.792Z,21.03
2018-03-27T07:28:00.643Z,21.27
2018-03-27T07:30:28.151Z,20.73
2018-03-27T07:32:55.647Z,20.73
2018-03-27T07:35:23.498Z,21.53
2018-03-27T07:37:51.403Z,22.23
2018-03-27T07:40:20.861Z,20.27
2018-03-27T07:42:48.403Z,21.83
2018-03-27T07:45:15.957Z,21.17
2018-03-27T07:47:43.434Z,21.47
2018-03-27T07:50:10.886Z,22.87
2018-03-27T07:52:38.375Z,21.53
2018-03-27T07:55:05.951Z,22.23
2018-03-27T07:57:33.423Z,21.23
2018-03-27T08:00:00.905Z,19.80
2018-03-27T08:02:28.383Z,19.73
2018-03-27T08:04:55.898Z,17.80
2018-03-27T08:07:23.418Z,20.67
2018-03-27T08:09:50.903Z,19.37
2018-03-27T08:12:18.444Z,19.50
2018-03-27T08:14:45.925Z,20.23
2018-03-27T08:17:13.419Z,19.10
2018-03-27T08:19:40.940Z,20.57
2018-03-27T08:22:08.485Z,19.37
2018-03-27T08:24:36.199Z,19.50
2018-03-27T08:27:04.437Z,19.37
2018-03-27T08:29:31.943Z,18.60
2018-03-27T08:31:59.447Z,18.97
2018-03-27T08:34:26.995Z,18.33
2018-03-27T08:36:54.485Z,17.47
2018-03-27T08:39:24.649Z,18.03
2018-03-27T08:41:52.195Z,18.83
2018-03-27T08:44:19.727Z,18.33
2018-03-27T08:46:47.273Z,17.83
2018-03-27T08:49:14.824Z,18.17
2018-03-27T08:51:42.334Z,18.20
2018-03-27T08:54:09.902Z,17.23
2018-03-27T08:56:37.433Z,17.53
2018-03-27T08:59:04.885Z,16.70
2018-03-27T09:01:32.360Z,17.77
2018-03-27T09:03:59.879Z,17.30
2018-03-27T09:06:27.388Z,19.83
2018-03-27T09:08:54.951Z,16.83
2018-03-27T09:11:22.522Z,16.83
2018-03-27T09:13:50.030Z,17.60
2018-03-27T09:16:17.513Z,16.63
2018-03-27T09:18:45.077Z,16.77
2018-03-27T09:21:31.949Z,18.17
2018-03-27T09:24:00.135Z,16.13
2018-03-27T09:26:27.635Z,17.10
2018-03-27T09:28:55.171Z,15.97
2018-03-27T09:31:22.703Z,15.77
2018-03-27T09:33:50.163Z,15.43
2018-03-27T09:36:17.658Z,15.27
2018-03-27T09:38:45.153Z,16.00
2018-03-27T09:41:12.699Z,16.47
2018-03-27T09:43:40.245Z,16.40
2018-03-27T09:46:07.764Z,16.93
2018-03-27T09:48:35.211Z,16.20
2018-03-27T09:51:02.777Z,15.13
2018-03-27T09:53:30.322Z,15.43
2018-03-27T09:55:57.786Z,15.93
2018-03-27T09:58:25.367Z,13.80
2018-03-27T10:00:53.097Z,15.37
2018-03-27T10:03:20.742Z,15.00
2018-03-27T10:05:48.277Z,14.17
2018-03-27T10:08:16.199Z,14.40
2018-03-27T10:10:43.750Z,12.93
2018-03-27T10:13:11.224Z,12.57
2018-03-27T10:15:38.813Z,13.67
2018-03-27T10:18:06.977Z,14.63
2018-03-27T10:20:34.491Z,13.57
2018-03-27T10:23:02.015Z,14.03
2018-03-27T10:25:29.583Z,14.20
2018-03-27T10:27:57.171Z,13.23
2018-03-27T10:30:24.970Z,14.03
2018-03-27T10:32:53.318Z,13.50
2018-03-27T10:35:21.788Z,12.67
2018-03-27T10:37:49.339Z,14.63
2018-03-27T10:40:17.767Z,13.57
2018-03-27T10:42:45.437Z,13.67
2018-03-27T10:45:12.925Z,12.40
2018-03-27T10:47:40.419Z,12.30
2018-03-27T10:50:07.908Z,12.10
2018-03-27T10:52:36.332Z,13.37
2018-03-27T10:55:03.882Z,9.73
2018-03-27T10:57:31.606Z,11.07
2018-03-27T10:59:59.697Z,11.83
2018-03-27T11:02:27.694Z,11.27
2018-03-27T11:04:55.232Z,10.60
2018-03-27T11:07:24.001Z,10.80
2018-03-27T11:09:51.575Z,9.73
2018-03-27T11:12:19.073Z,9.27
2018-03-27T11:14:46.522Z,9.67
2018-03-27T11:17:14.132Z,9.57
2018-03-27T11:19:41.650Z,9.73
2018-03-27T11:22:09.089Z,9.50
2018-03-27T11:24:37.221Z,9.80
2018-03-27T11:27:04.766Z,8.63
2018-03-27T11:29:32.311Z,9.17
2018-03-27T11:32:01.175Z,9.20
2018-03-27T11:34:28.669Z,9.20
2018-03-27T11:36:56.394Z,7.97
2018-03-27T11:39:23.877Z,8.70
2018-03-27T11:41:51.429Z,8.45
2018-03-27T11:44:18.977Z,8.65
2018-03-27T11:46:46.451Z,8.80
2018-03-27T11:49:13.909Z,8.27
2018-03-27T11:52:05.038Z,10.27
2018-03-27T11:54:32.558Z,8.70
2018-03-27T11:57:01.257Z,7.87
2018-03-27T11:59:28.703Z,8.67
2018-03-27T12:01:56.220Z,8.13
2018-03-27T12:04:23.756Z,8.00
2018-03-27T12:06:51.238Z,8.37
2018-03-27T12:09:18.782Z,7.70
2018-03-27T12:11:46.307Z,8.30
2018-03-27T12:14:13.917Z,8.13
2018-03-27T12:16:41.414Z,8.07
2018-03-27T12:19:08.972Z,9.07
2018-03-27T12:21:36.451Z,8.70
2018-03-27T12:24:03.923Z,9.93
2018-03-27T12:26:31.393Z,8.10
2018-03-27T12:28:58.949Z,8.07
2018-03-27T12:31:26.582Z,8.03
2018-03-27T12:33:54.214Z,8.73
2018-03-27T12:36:21.828Z,7.57
2018-03-27T12:38:49.449Z,8.60
2018-03-27T12:44:14.287Z,7.50
2018-03-27T12:46:41.791Z,8.00
2018-03-27T12:49:09.260Z,7.23
2018-03-27T12:51:36.720Z,7.37
2018-03-27T12:54:04.212Z,7.13
2018-03-27T12:56:31.960Z,6.73
2018-03-27T12:58:59.576Z,7.27
2018-03-27T13:01:27.051Z,7.07
2018-03-27T13:03:55.190Z,6.75
2018-03-27T13:06:22.658Z,6.53
2018-03-27T13:08:50.104Z,6.78
2018-03-27T13:11:18.439Z,6.90
2018-03-27T13:13:47.364Z,6.72
2018-03-27T13:16:14.863Z,6.57
2018-03-27T13:18:42.320Z,7.03
2018-03-27T13:21:09.781Z,6.57
2018-03-27T13:23:37.424Z,6.43
2018-03-27T13:26:05.140Z,6.40
2018-03-27T13:28:32.734Z,6.60
2018-03-27T13:31:00.202Z,6.93
2018-03-27T13:33:27.661Z,6.82
2018-03-27T13:35:55.144Z,6.95
2018-03-27T13:38:22.836Z,6.32
2018-03-27T13:40:50.302Z,6.57
2018-03-27T13:43:17.779Z,6.28
2018-03-27T13:45:45.314Z,6.68
2018-03-27T13:48:12.778Z,6.62
2018-03-27T13:50:45.238Z,6.80
2018-03-27T13:53:12.732Z,6.65
2018-03-27T13:55:40.246Z,6.68
2018-03-27T13:58:07.756Z,7.10
2018-03-27T14:00:35.294Z,7.10
2018-03-27T14:03:02.801Z,7.72
2018-03-27T14:05:30.288Z,6.95
2018-03-27T14:07:57.780Z,6.97
2018-03-27T14:10:25.488Z,6.68
2018-03-27T14:12:53.029Z,6.70
2018-03-27T14:15:20.749Z,6.45
2018-03-27T14:17:48.466Z,6.12
2018-03-27T14:20:15.938Z,5.95
2018-03-27T14:25:36.168Z,5.70
2018-03-27T14:28:03.707Z,6.50
2018-03-27T14:30:32.192Z,5.67
2018-03-27T14:32:59.577Z,5.73
2018-03-27T14:35:27.076Z,6.90
2018-03-27T14:37:54.544Z,5.70
2018-03-27T14:40:22.926Z,5.77
2018-03-27T14:42:50.409Z,5.93
2018-03-27T14:45:17.918Z,6.43
2018-03-27T14:47:45.433Z,6.50
2018-03-27T14:50:12.887Z,6.53
2018-03-27T14:52:40.547Z,7.00
2018-03-27T14:55:08.146Z,6.70
2018-03-27T14:57:35.610Z,7.00
2018-03-27T15:00:03.144Z,7.97
2018-03-27T15:02:30.674Z,6.93
2018-03-27T15:04:58.223Z,7.10
2018-03-27T15:07:25.833Z,7.93
2018-03-27T15:09:53.310Z,7.87
2018-03-27T15:12:25.799Z,9.33
2018-03-27T15:14:53.305Z,9.00
2018-03-27T15:19:59.849Z,8.90
2018-03-27T15:22:27.386Z,9.17
2018-03-27T15:24:54.868Z,9.60
2018-03-27T15:27:22.400Z,9.53
2018-03-27T15:29:49.942Z,10.00
2018-03-27T15:32:17.430Z,8.97
2018-03-27T15:34:45.891Z,9.43
2018-03-27T15:37:13.600Z,10.40
2018-03-27T15:39:41.445Z,10.90
2018-03-27T15:42:08.938Z,10.40
2018-03-27T15:44:36.422Z,10.07
2018-03-27T15:47:03.932Z,11.77
2018-03-27T15:49:31.428Z,10.53
2018-03-27T15:52:03.979Z,10.20
2018-03-27T15:54:31.472Z,10.10
2018-03-27T15:56:59.013Z,10.53
2018-03-27T15:59:26.465Z,12.13
2018-03-27T16:01:54.433Z,10.57
2018-03-27T16:04:21.915Z,10.70
2018-03-27T16:06:49.653Z,13.23
2018-03-27T16:09:17.142Z,10.90
2018-03-27T16:11:44.632Z,11.33
2018-03-27T16:14:12.169Z,11.60
2018-03-27T16:16:39.742Z,11.83
2018-03-27T16:19:07.303Z,11.43
2018-03-27T16:21:34.844Z,12.20
2018-03-27T16:24:02.361Z,13.57
2018-03-27T16:26:29.937Z,11.93
2018-03-27T16:28:57.386Z,14.03
2018-03-27T16:31:24.953Z,12.30
2018-03-27T16:33:52.479Z,11.53
2018-03-27T16:36:19.996Z,12.23
2018-03-27T16:38:47.728Z,12.10
2018-03-27T16:44:12.680Z,12.17
2018-03-27T16:46:40.227Z,13.50
2018-03-27T16:49:07.734Z,10.07
2018-03-27T16:51:35.185Z,9.60
2018-03-27T16:54:02.675Z,9.10
2018-03-27T16:56:30.136Z,9.23
2018-03-27T16:58:57.679Z,8.70
2018-03-27T17:01:25.170Z,9.67
2018-03-27T17:03:52.720Z,9.13
2018-03-27T17:06:20.219Z,8.67
2018-03-27T17:08:47.751Z,9.23
2018-03-27T17:11:15.246Z,10.47
2018-03-27T17:13:42.805Z,8.80
2018-03-27T17:16:10.519Z,8.40
2018-03-27T17:18:37.959Z,10.50
2018-03-27T17:21:05.483Z,9.33
2018-03-27T17:23:33.043Z,10.53
2018-03-27T17:26:00.546Z,9.17
2018-03-27T17:28:28.061Z,10.43
2018-03-27T17:31:00.553Z,9.20
2018-03-27T17:33:28.049Z,10.83
2018-03-27T17:35:55.492Z,9.03
2018-03-27T17:38:22.956Z,11.73
2018-03-27T17:40:50.499Z,9.93
2018-03-27T17:43:17.998Z,10.23
2018-03-27T17:45:45.471Z,10.73
2018-03-27T17:48:13.009Z,10.10
2018-03-27T17:50:40.539Z,11.00
2018-03-27T17:53:08.023Z,10.10
2018-03-27T17:55:35.525Z,10.67
2018-03-27T17:58:03.083Z,9.87
2018-03-27T18:00:30.577Z,10.33
2018-03-27T18:02:58.089Z,9.33
2018-03-27T18:05:25.665Z,10.80
2018-03-27T18:07:53.538Z,10.67
2018-03-27T18:10:21.879Z,11.07
2018-03-27T18:12:50.274Z,10.77
2018-03-27T18:15:17.825Z,9.47
2018-03-27T18:17:45.387Z,10.40
2018-03-27T18:20:12.862Z,11.00
2018-03-27T18:22:40.394Z,11.83
2018-03-27T18:25:07.891Z,11.20
2018-03-27T18:27:35.367Z,10.70
2018-03-27T18:30:02.833Z,11.20
2018-03-27T18:32:30.278Z,11.10
2018-03-27T18:34:57.764Z,10.93
2018-03-27T18:37:25.219Z,10.47
2018-03-27T18:39:52.709Z,12.13
2018-03-27T18:42:34.449Z,10.97
2018-03-27T18:45:01.981Z,11.90
2018-03-27T18:47:29.493Z,11.03
2018-03-27T18:49:57.011Z,11.17
2018-03-27T18:52:24.525Z,11.33
2018-03-27T18:54:51.983Z,11.53
2018-03-27T18:57:20.229Z,11.70
2018-03-27T18:59:47.763Z,10.70
2018-03-27T19:02:15.262Z,10.60
2018-03-27T19:04:42.881Z,11.47
2018-03-27T19:07:10.342Z,10.47
2018-03-27T19:09:37.863Z,10.73
2018-03-27T19:12:05.339Z,10.97
2018-03-27T19:14:32.857Z,11.17
2018-03-27T19:17:00.479Z,11.57
2018-03-27T19:19:27.969Z,11.80
2018-03-27T19:21:55.493Z,10.80
2018-03-27T19:24:22.967Z,10.77
2018-03-27T19:26:50.635Z,11.20
2018-03-27T19:29:18.184Z,12.13
2018-03-27T19:31:45.765Z,10.57
2018-03-27T19:34:13.221Z,10.83
2018-03-27T19:36:40.856Z,11.07
2018-03-27T19:39:08.583Z,10.03
2018-03-27T19:41:36.127Z,9.77
2018-03-27T19:44:04.161Z,10.50
2018-03-27T19:46:31.789Z,9.97
2018-03-27T19:48:59.319Z,10.33
2018-03-27T19:51:26.964Z,10.27
2018-03-27T19:53:54.467Z,10.10
2018-03-27T19:56:22.589Z,10.23
2018-03-27T19:59:11.787Z,10.10
2018-03-27T20:01:39.404Z,10.60
2018-03-27T20:04:07.176Z,10.00
2018-03-27T20:06:34.677Z,10.97
2018-03-27T20:09:02.299Z,9.67
2018-03-27T20:11:44.142Z,9.87
2018-03-27T20:14:11.678Z,10.53
2018-03-27T20:16:39.285Z,10.43
2018-03-27T20:19:06.881Z,10.97
2018-03-27T20:21:34.481Z,10.20
2018-03-27T20:24:02.040Z,10.03
2018-03-27T20:26:30.350Z,10.20
2018-03-27T20:28:57.825Z,9.20
2018-03-27T20:31:25.311Z,9.13
2018-03-27T20:33:52.777Z,10.07
2018-03-27T20:36:20.612Z,10.03
2018-03-27T20:38:48.080Z,9.77
2018-03-27T20:41:16.256Z,9.60
2018-03-27T20:43:43.761Z,9.73
2018-03-27T20:46:11.471Z,9.13
2018-03-27T20:48:38.943Z,10.10
2018-03-27T20:51:06.447Z,10.00
2018-03-27T20:53:34.121Z,9.70
2018-03-27T20:56:01.629Z,8.73
2018-03-27T20:58:29.059Z,8.77
2018-03-27T21:00:56.521Z,11.50
2018-03-27T21:03:24.280Z,10.70
2018-03-27T21:05:51.995Z,10.10
2018-03-27T21:08:20.163Z,8.63
2018-03-27T21:10:47.612Z,8.57
2018-03-27T21:13:15.143Z,9.07
2018-03-27T21:15:42.675Z,8.87
2018-03-27T21:18:10.133Z,8.90
2018-03-27T21:20:37.673Z,8.77
2018-03-27T21:23:05.159Z,9.10
2018-03-27T21:25:32.626Z,8.73
2018-03-27T21:28:00.088Z,9.60
2018-03-27T21:30:27.562Z,8.23
2018-03-27T21:32:55.124Z,8.90
2018-03-27T21:35:23.253Z,8.90
2018-03-27T21:37:50.842Z,9.83
2018-03-27T21:40:18.299Z,8.63
2018-03-27T21:42:45.784Z,8.70
2018-03-27T21:45:13.224Z,9.30
2018-03-27T21:47:40.682Z,8.87
2018-03-27T21:50:08.257Z,9.23
2018-03-27T21:52:36.496Z,9.17
2018-03-27T21:55:04.015Z,9.73
2018-03-27T21:57:31.521Z,9.63
2018-03-27T21:59:59.858Z,9.80
2018-03-27T22:02:27.424Z,10.00
2018-03-27T22:04:54.912Z,9.20
2018-03-27T22:07:22.368Z,9.40
2018-03-27T22:09:49.872Z,9.53
2018-03-27T22:12:17.368Z,9.40
2018-03-27T22:14:44.936Z,10.07
2018-03-27T22:17:12.436Z,10.10
2018-03-27T22:19:40.001Z,11.60
2018-03-27T22:22:07.461Z,10.40
2018-03-27T22:24:34.983Z,10.97
2018-03-27T22:27:02.452Z,11.47
2018-03-27T22:29:29.932Z,10.90
2018-03-27T22:31:57.454Z,11.27
2018-03-27T22:34:25.202Z,11.93
2018-03-27T22:36:52.718Z,12.63
2018-03-27T22:39:20.218Z,12.07
2018-03-27T22:41:47.654Z,12.40
2018-03-27T22:44:15.101Z,11.93
2018-03-27T22:46:42.537Z,12.30
2018-03-27T22:49:10.022Z,12.50
2018-03-27T22:51:37.486Z,12.37
2018-03-27T22:54:04.964Z,12.40
2018-03-27T22:56:32.396Z,11.90
2018-03-27T22:58:59.869Z,13.40
2018-03-27T23:01:27.477Z,12.40
2018-03-27T23:03:55.019Z,14.40
2018-03-27T23:06:22.559Z,12.20
2018-03-27T23:08:50.115Z,14.33
2018-03-27T23:11:17.584Z,13.00
2018-03-27T23:13:45.106Z,13.93
2018-03-27T23:16:13.304Z,13.03
2018-03-27T23:18:40.798Z,12.80
2018-03-27T23:21:08.336Z,14.67
2018-03-27T23:23:35.825Z,13.80
2018-03-27T23:26:04.446Z,14.20
2018-03-27T23:28:31.901Z,13.90
2018-03-27T23:30:59.398Z,14.50
2018-03-27T23:33:26.836Z,14.70
2018-03-27T23:35:54.316Z,15.70
2018-03-27T23:38:22.005Z,15.43
2018-03-27T23:40:49.492Z,14.57
2018-03-27T23:43:16.941Z,15.40
2018-03-27T23:45:44.485Z,15.40
2018-03-27T23:48:11.928Z,14.27
2018-03-27T23:50:39.404Z,14.30
2018-03-27T23:53:06.887Z,14.83
2018-03-27T23:55:34.356Z,15.73
2018-03-27T23:58:01.855Z,15.63
